createdAt,value
2023-04-27T00:01:19.173Z,97631.81
2023-04-27T00:03:46.208Z,97631.81
2023-04-27T00:06:13.411Z,97628.72
2023-04-27T00:08:40.134Z,97635.72
2023-04-27T00:11:06.876Z,97637.28
2023-04-27T00:13:33.534Z,97635.34
2023-04-27T00:16:03.762Z,97641.56
2023-04-27T00:18:31.317Z,97631.06
2023-04-27T00:20:58.557Z,97635.34
2023-04-27T00:23:25.241Z,97648.56
2023-04-27T00:25:51.913Z,97639.22
2023-04-27T00:28:18.631Z,97641.16
2023-04-27T00:30:45.326Z,97640.41
2023-04-27T00:33:12.061Z,97639.22
2023-04-27T00:35:38.607Z,97625.63
2023-04-27T00:38:05.395Z,97633.00
2023-04-27T00:40:32.167Z,97631.06
2023-04-27T00:42:58.713Z,97625.63
2023-04-27T00:45:25.351Z,97627.19
2023-04-27T00:47:52.286Z,97619.41
2023-04-27T00:50:27.857Z,97627.19
2023-04-27T00:52:55.015Z,97621.72
2023-04-27T00:55:21.779Z,97613.56
2023-04-27T00:57:48.432Z,97611.25
2023-04-27T01:00:15.695Z,97606.19
2023-04-27T01:02:42.985Z,97610.84
2023-04-27T01:05:10.235Z,97604.25
2023-04-27T01:07:40.552Z,97613.19
2023-04-27T01:10:08.464Z,97612.41
2023-04-27T01:12:35.035Z,97610.06
2023-04-27T01:15:01.673Z,97617.84
2023-04-27T01:17:28.492Z,97607.75
2023-04-27T01:19:56.887Z,97614.75
2023-04-27T01:22:23.477Z,97610.84
2023-04-27T01:24:50.061Z,97617.88
2023-04-27T01:27:19.147Z,97607.75
2023-04-27T01:29:45.998Z,97609.28
2023-04-27T01:32:13.142Z,97617.47
2023-04-27T01:34:39.764Z,97613.97
2023-04-27T01:37:06.436Z,97608.50
2023-04-27T01:39:33.395Z,97610.47
2023-04-27T01:42:00.120Z,97612.41
2023-04-27T01:44:26.718Z,97613.19
2023-04-27T01:46:53.356Z,97617.09
2023-04-27T01:49:19.920Z,97607.75
2023-04-27T01:51:46.626Z,97609.69
2023-04-27T01:54:13.247Z,97608.50
2023-04-27T01:56:39.948Z,97606.56
2023-04-27T01:59:06.519Z,97611.63
2023-04-27T02:01:33.180Z,97613.16
2023-04-27T02:03:59.891Z,97615.09
2023-04-27T02:06:27.967Z,97608.09
2023-04-27T02:08:54.482Z,97615.47
2023-04-27T02:11:21.900Z,97618.97
2023-04-27T02:13:49.053Z,97616.25
2023-04-27T02:16:15.840Z,97615.06
2023-04-27T02:18:42.997Z,97627.44
2023-04-27T02:21:10.986Z,97620.06
2023-04-27T02:23:37.723Z,97627.84
2023-04-27T02:26:04.435Z,97623.16
2023-04-27T02:28:31.307Z,97628.56
2023-04-27T02:30:59.056Z,97620.41
2023-04-27T02:33:25.638Z,97624.66
2023-04-27T02:35:52.377Z,97625.41
2023-04-27T02:38:19.129Z,97615.69
2023-04-27T02:40:45.771Z,97620.31
2023-04-27T02:43:12.334Z,97623.00
2023-04-27T02:45:38.962Z,97620.28
2023-04-27T02:48:06.009Z,97620.66
2023-04-27T02:50:32.770Z,97617.56
2023-04-27T02:52:59.935Z,97621.41
2023-04-27T02:55:27.729Z,97623.31
2023-04-27T02:57:54.406Z,97621.72
2023-04-27T03:00:21.014Z,97624.81
2023-04-27T03:02:47.701Z,97624.31
2023-04-27T03:05:14.453Z,97623.53
2023-04-27T03:07:41.378Z,97621.59
2023-04-27T03:10:08.384Z,97626.59
2023-04-27T03:12:35.460Z,97615.66
2023-04-27T03:15:02.209Z,97615.97
2023-04-27T03:17:28.899Z,97612.53
2023-04-27T03:19:55.714Z,97624.88
2023-04-27T03:22:22.544Z,97626.34
2023-04-27T03:24:49.300Z,97635.63
2023-04-27T03:27:15.918Z,97639.50
2023-04-27T03:29:42.561Z,97642.50
2023-04-27T03:32:09.171Z,97644.44
2023-04-27T03:34:35.876Z,97646.72
2023-04-27T03:37:03.527Z,97649.00
2023-04-27T03:39:30.143Z,97648.91
2023-04-27T03:41:57.710Z,97651.16
2023-04-27T03:44:24.762Z,97652.38
2023-04-27T03:46:51.580Z,97652.38
2023-04-27T03:49:18.229Z,97650.38
2023-04-27T03:51:44.866Z,97654.66
2023-04-27T03:54:11.705Z,97665.50
2023-04-27T03:56:38.355Z,97663.06
2023-04-27T03:59:05.459Z,97662.84
2023-04-27T04:01:32.154Z,97667.91
2023-04-27T04:03:58.987Z,97676.44
2023-04-27T04:06:26.282Z,97674.06
2023-04-27T04:08:52.822Z,97679.53
2023-04-27T04:11:19.453Z,97688.50
2023-04-27T04:13:46.240Z,97688.06
2023-04-27T04:16:13.961Z,97689.69
2023-04-27T04:18:40.717Z,97686.19
2023-04-27T04:21:07.343Z,97689.66
2023-04-27T04:23:34.086Z,97691.34
2023-04-27T04:26:02.369Z,97686.69
2023-04-27T04:28:29.344Z,97684.44
2023-04-27T04:30:57.044Z,97687.94
2023-04-27T04:33:24.463Z,97683.78
2023-04-27T04:35:51.965Z,97686.97
2023-04-27T04:38:18.580Z,97693.97
2023-04-27T04:40:46.058Z,97692.09
2023-04-27T04:43:13.652Z,97684.72
2023-04-27T04:45:40.390Z,97684.03
2023-04-27T04:48:07.070Z,97685.66
2023-04-27T04:50:33.734Z,97681.06
2023-04-27T04:53:00.389Z,97684.16
2023-04-27T04:55:28.495Z,97696.66
2023-04-27T04:57:55.352Z,97696.66
2023-04-27T05:00:22.712Z,97699.06
2023-04-27T05:02:49.656Z,97700.66
2023-04-27T05:05:16.875Z,97708.06
2023-04-27T05:07:43.616Z,97705.81
2023-04-27T05:10:10.426Z,97698.44
2023-04-27T05:12:37.235Z,97689.16
2023-04-27T05:15:04.963Z,97693.03
2023-04-27T05:17:31.997Z,97700.50
2023-04-27T05:19:58.602Z,97701.72
2023-04-27T05:22:25.218Z,97701.75
2023-04-27T05:24:52.131Z,97699.81
2023-04-27T05:27:18.761Z,97698.22
2023-04-27T05:29:45.565Z,97702.53
2023-04-27T05:32:12.109Z,97705.28
2023-04-27T05:34:38.738Z,97700.63
2023-04-27T05:37:05.471Z,97701.06
2023-04-27T05:39:32.190Z,97713.50
2023-04-27T05:41:59.219Z,97715.84
2023-04-27T05:44:28.752Z,97725.94
2023-04-27T05:46:56.418Z,97725.56
2023-04-27T05:49:23.603Z,97722.09
2023-04-27T05:51:50.306Z,97718.97
2023-04-27T05:54:16.953Z,97723.22
2023-04-27T05:56:43.620Z,97716.59
2023-04-27T05:59:10.394Z,97718.94
2023-04-27T06:01:37.147Z,97724.78
2023-04-27T06:04:04.244Z,97722.03
2023-04-27T06:06:35.512Z,97720.47
2023-04-27T06:09:02.234Z,97714.22
2023-04-27T06:11:28.903Z,97713.00
2023-04-27T06:13:55.624Z,97722.72
2023-04-27T06:16:22.225Z,97732.03
2023-04-27T06:18:50.828Z,97723.03
2023-04-27T06:21:17.685Z,97726.06
2023-04-27T06:23:44.292Z,97728.06
2023-04-27T06:26:11.589Z,97727.19
2023-04-27T06:28:38.331Z,97733.09
2023-04-27T06:31:06.501Z,97731.91
2023-04-27T06:33:34.770Z,97729.53
2023-04-27T06:36:02.355Z,97737.75
2023-04-27T06:38:29.145Z,97748.16
2023-04-27T06:40:55.752Z,97748.94
2023-04-27T06:43:22.408Z,97755.25
2023-04-27T06:45:49.049Z,97750.44
2023-04-27T06:48:15.772Z,97750.38
2023-04-27T06:50:43.253Z,97754.09
2023-04-27T06:53:10.608Z,97754.16
2023-04-27T06:55:37.231Z,97756.06
2023-04-27T06:58:03.832Z,97750.69
2023-04-27T07:00:31.340Z,97752.66
2023-04-27T07:02:58.151Z,97747.94
2023-04-27T07:05:24.795Z,97743.66
2023-04-27T07:07:51.432Z,97745.00
2023-04-27T07:10:18.262Z,97749.53
2023-04-27T07:12:44.954Z,97737.16
2023-04-27T07:15:11.760Z,97738.03
2023-04-27T07:17:38.634Z,97748.91
2023-04-27T07:20:09.419Z,97742.25
2023-04-27T07:22:36.466Z,97742.41
2023-04-27T07:25:04.134Z,97740.94
2023-04-27T07:27:32.025Z,97739.31
2023-04-27T07:29:59.267Z,97742.47
2023-04-27T07:32:26.366Z,97737.88
2023-04-27T07:34:55.651Z,97730.59
2023-04-27T07:37:23.077Z,97740.25
2023-04-27T07:39:52.240Z,97747.41
2023-04-27T07:42:19.829Z,97742.84
2023-04-27T07:44:46.640Z,97742.50
2023-04-27T07:47:13.506Z,97747.31
2023-04-27T07:49:40.567Z,97754.63
2023-04-27T07:52:07.469Z,97741.13
2023-04-27T07:54:34.673Z,97751.28
2023-04-27T07:57:02.373Z,97749.75
2023-04-27T07:59:31.621Z,97754.00
2023-04-27T08:02:17.040Z,97758.59
2023-04-27T08:04:45.204Z,97761.09
2023-04-27T08:07:12.643Z,97758.03
2023-04-27T08:09:39.469Z,97763.81
2023-04-27T08:12:06.283Z,97768.50
2023-04-27T08:14:35.387Z,97769.41
2023-04-27T08:17:02.493Z,97768.78
2023-04-27T08:19:29.154Z,97762.03
2023-04-27T08:21:56.318Z,97768.38
2023-04-27T08:24:22.843Z,97776.19
2023-04-27T08:26:49.387Z,97769.81
2023-04-27T08:29:27.238Z,97761.88
2023-04-27T08:31:56.956Z,97764.69
2023-04-27T08:34:23.794Z,97767.66
2023-04-27T08:36:50.343Z,97758.00
2023-04-27T08:39:20.712Z,97767.66
2023-04-27T08:41:47.311Z,97761.97
2023-04-27T08:44:13.918Z,97761.47
2023-04-27T08:46:41.168Z,97756.53
2023-04-27T08:49:08.098Z,97760.88
2023-04-27T08:51:35.363Z,97754.16
2023-04-27T08:54:02.242Z,97749.66
2023-04-27T08:56:30.292Z,97753.50
2023-04-27T08:58:57.881Z,97764.03
2023-04-27T09:01:26.296Z,97755.28
2023-04-27T09:03:58.396Z,97767.56
2023-04-27T09:06:35.907Z,97759.28
2023-04-27T09:09:03.970Z,97763.94
2023-04-27T09:11:40.048Z,97762.50
2023-04-27T09:14:19.285Z,97759.03
2023-04-27T09:16:46.629Z,97761.25
2023-04-27T09:19:24.447Z,97759.03
2023-04-27T09:21:51.822Z,97754.75
2023-04-27T09:24:18.572Z,97755.63
2023-04-27T09:26:50.231Z,97749.22
2023-04-27T09:29:17.599Z,97748.59
2023-04-27T09:31:44.271Z,97747.22
2023-04-27T09:34:10.904Z,97740.50
2023-04-27T09:36:38.137Z,97740.28
2023-04-27T09:39:05.501Z,97738.84
2023-04-27T09:41:33.520Z,97735.56
2023-04-27T09:44:00.975Z,97737.22
2023-04-27T09:46:29.894Z,97725.63
2023-04-27T09:48:56.587Z,97725.53
2023-04-27T09:51:26.280Z,97722.22
2023-04-27T09:53:56.588Z,97726.81
2023-04-27T09:56:55.805Z,97725.03
2023-04-27T09:59:31.019Z,97711.97
2023-04-27T10:02:05.149Z,97715.38
2023-04-27T10:05:09.658Z,97712.06
2023-04-27T10:07:39.670Z,97707.13
2023-04-27T10:10:07.595Z,97706.78
2023-04-27T10:12:36.754Z,97704.75
2023-04-27T10:15:14.275Z,97705.38
2023-04-27T10:17:48.822Z,97705.25
2023-04-27T10:20:15.990Z,97704.63
2023-04-27T10:22:47.272Z,97707.31
2023-04-27T10:25:24.220Z,97703.84
2023-04-27T10:27:54.304Z,97698.03
2023-04-27T10:30:26.551Z,97699.13
2023-04-27T10:32:58.231Z,97705.50
2023-04-27T10:35:37.733Z,97696.19
2023-04-27T10:38:15.106Z,97707.25
2023-04-27T10:40:43.809Z,97705.56
2023-04-27T10:43:18.084Z,97709.09
2023-04-27T10:45:45.557Z,97698.16
2023-04-27T10:48:17.857Z,97696.50
2023-04-27T10:50:45.053Z,97685.38
2023-04-27T10:53:11.894Z,97691.47
2023-04-27T10:55:38.726Z,97683.84
2023-04-27T10:58:06.225Z,97678.50
2023-04-27T11:00:45.597Z,97680.31
2023-04-27T11:03:24.333Z,97676.47
2023-04-27T11:06:01.727Z,97682.63
2023-04-27T11:08:28.471Z,97677.84
2023-04-27T11:10:55.160Z,97682.06
2023-04-27T11:13:24.307Z,97684.53
2023-04-27T11:15:59.404Z,97687.88
2023-04-27T11:18:29.837Z,97689.44
2023-04-27T11:21:17.716Z,97682.78
2023-04-27T11:23:44.485Z,97690.41
2023-04-27T11:26:19.180Z,97692.13
2023-04-27T11:29:00.331Z,97688.75
2023-04-27T11:31:49.226Z,97690.31
2023-04-27T11:34:22.875Z,97680.50
2023-04-27T11:37:17.984Z,97676.66
2023-04-27T11:39:46.082Z,97679.75
2023-04-27T11:42:28.826Z,97676.81
2023-04-27T11:44:56.627Z,97681.41
2023-04-27T11:47:25.297Z,97670.59
2023-04-27T11:49:55.251Z,97679.31
2023-04-27T11:52:23.256Z,97685.81
2023-04-27T11:54:56.558Z,97680.00
2023-04-27T11:57:28.070Z,97683.53
2023-04-27T11:59:56.141Z,97688.69
2023-04-27T12:02:23.871Z,97680.81
2023-04-27T12:04:51.989Z,97679.00
2023-04-27T12:07:19.431Z,97669.47
2023-04-27T12:09:47.043Z,97669.16
2023-04-27T12:12:22.603Z,97673.25
2023-04-27T12:14:50.152Z,97666.00
2023-04-27T12:17:16.829Z,97658.84
2023-04-27T12:19:43.518Z,97670.09
2023-04-27T12:22:10.531Z,97673.72
2023-04-27T12:24:37.661Z,97677.78
2023-04-27T12:27:05.514Z,97681.47
2023-04-27T12:29:32.630Z,97672.69
2023-04-27T12:31:59.875Z,97679.53
2023-04-27T12:34:27.537Z,97676.44
2023-04-27T12:36:54.232Z,97678.13
2023-04-27T12:39:27.155Z,97666.53
2023-04-27T12:41:54.282Z,97670.47
2023-04-27T12:44:21.673Z,97665.78
2023-04-27T12:46:48.662Z,97668.72
2023-04-27T12:49:18.494Z,97666.81
2023-04-27T12:51:46.903Z,97661.25
2023-04-27T12:54:13.998Z,97666.03
2023-04-27T12:56:42.098Z,97658.47
2023-04-27T12:59:08.944Z,97654.09
2023-04-27T13:01:35.551Z,97661.66
2023-04-27T13:04:04.531Z,97651.38
2023-04-27T13:06:32.186Z,97643.59
2023-04-27T13:09:02.964Z,97641.97
2023-04-27T13:11:29.914Z,97645.69
2023-04-27T13:13:56.690Z,97646.63
2023-04-27T13:16:25.652Z,97638.31
2023-04-27T13:18:53.793Z,97646.31
2023-04-27T13:21:20.674Z,97648.59
2023-04-27T13:23:48.123Z,97648.13
2023-04-27T13:26:16.651Z,97647.16
2023-04-27T13:28:43.469Z,97624.09
2023-04-27T13:31:10.369Z,97640.56
2023-04-27T13:33:42.262Z,97638.94
2023-04-27T13:36:10.115Z,97637.94
2023-04-27T13:38:36.840Z,97638.34
2023-04-27T13:41:04.284Z,97631.19
2023-04-27T13:43:31.404Z,97633.53
2023-04-27T13:46:03.956Z,97628.53
2023-04-27T13:48:31.283Z,97625.41
2023-04-27T13:50:58.348Z,97623.81
2023-04-27T13:53:28.038Z,97613.28
2023-04-27T13:55:55.788Z,97613.50
2023-04-27T13:58:25.628Z,97614.34
2023-04-27T14:00:53.107Z,97609.03
2023-04-27T14:03:20.274Z,97600.75
2023-04-27T14:05:49.082Z,97603.22
2023-04-27T14:08:16.162Z,97595.69
2023-04-27T14:10:43.051Z,97592.47
2023-04-27T14:13:09.783Z,97585.88
2023-04-27T14:15:38.404Z,97591.66
2023-04-27T14:18:06.599Z,97588.75
2023-04-27T14:20:34.888Z,97596.47
2023-04-27T14:23:02.527Z,97597.69
2023-04-27T14:25:32.885Z,97592.31
2023-04-27T14:28:01.654Z,97595.22
2023-04-27T14:30:28.873Z,97596.00
2023-04-27T14:32:56.716Z,97592.91
2023-04-27T14:35:24.133Z,97591.47
2023-04-27T14:37:52.272Z,97592.72
2023-04-27T14:40:19.512Z,97592.13
2023-04-27T14:42:47.137Z,97587.47
2023-04-27T14:45:13.820Z,97593.84
2023-04-27T14:47:40.502Z,97585.94
2023-04-27T14:50:07.802Z,97597.34
2023-04-27T14:52:34.465Z,97590.56
2023-04-27T14:55:01.071Z,97588.88
2023-04-27T14:57:27.867Z,97594.25
2023-04-27T14:59:54.461Z,97594.25
2023-04-27T15:02:21.262Z,97597.66
2023-04-27T15:04:47.932Z,97593.38
2023-04-27T15:07:14.595Z,97587.06
2023-04-27T15:09:44.218Z,97582.28
2023-04-27T15:12:11.557Z,97594.25
2023-04-27T15:14:38.119Z,97593.97
2023-04-27T15:17:04.732Z,97594.31
2023-04-27T15:19:31.311Z,97597.06
2023-04-27T15:21:58.079Z,97594.88
2023-04-27T15:24:24.771Z,97598.44
2023-04-27T15:26:51.371Z,97587.84
2023-04-27T15:29:17.939Z,97592.25
2023-04-27T15:31:47.472Z,97586.19
2023-04-27T15:34:14.081Z,97586.50
2023-04-27T15:36:40.919Z,97580.47
2023-04-27T15:39:09.871Z,97585.88
2023-04-27T15:41:36.847Z,97585.66
2023-04-27T15:44:08.149Z,97590.91
2023-04-27T15:46:35.071Z,97581.63
2023-04-27T15:49:01.671Z,97579.94
2023-04-27T15:51:28.612Z,97580.31
2023-04-27T15:53:55.220Z,97584.78
2023-04-27T15:56:21.907Z,97578.63
2023-04-27T15:58:50.049Z,97573.09
2023-04-27T16:01:21.253Z,97580.13
2023-04-27T16:03:47.975Z,97571.16
2023-04-27T16:06:14.605Z,97574.72
2023-04-27T16:08:41.242Z,97571.53
2023-04-27T16:11:08.002Z,97572.69
2023-04-27T16:13:34.618Z,97555.25
2023-04-27T16:16:02.106Z,97561.09
2023-04-27T16:18:28.712Z,97559.38
2023-04-27T16:20:55.298Z,97560.25
2023-04-27T16:23:22.228Z,97554.72
2023-04-27T16:25:48.783Z,97554.69
2023-04-27T16:28:16.665Z,97558.72
2023-04-27T16:30:43.287Z,97558.75
2023-04-27T16:33:10.197Z,97567.97
2023-04-27T16:35:37.169Z,97557.75
2023-04-27T16:38:06.168Z,97559.91
2023-04-27T16:40:34.727Z,97558.06
2023-04-27T16:43:01.446Z,97545.72
2023-04-27T16:45:28.808Z,97552.19
2023-04-27T16:47:55.733Z,97546.97
2023-04-27T16:50:22.520Z,97548.53
2023-04-27T16:52:50.067Z,97544.84
2023-04-27T16:55:16.924Z,97545.13
2023-04-27T16:57:43.549Z,97548.53
2023-04-27T17:00:10.848Z,97554.75
2023-04-27T17:02:38.520Z,97546.69
2023-04-27T17:05:06.547Z,97545.66
2023-04-27T17:07:33.291Z,97538.31
2023-04-27T17:10:00.298Z,97546.69
2023-04-27T17:12:27.091Z,97544.72
2023-04-27T17:14:56.585Z,97544.66
2023-04-27T17:17:23.220Z,97545.69
2023-04-27T17:19:50.078Z,97537.44
2023-04-27T17:22:16.789Z,97541.31
2023-04-27T17:24:43.408Z,97542.22
2023-04-27T17:27:10.478Z,97549.72
2023-04-27T17:29:38.148Z,97551.94
2023-04-27T17:32:05.340Z,97547.47
2023-04-27T17:34:32.082Z,97547.19
2023-04-27T17:36:58.837Z,97548.97
2023-04-27T17:39:25.688Z,97545.81
2023-04-27T17:41:52.372Z,97540.63
2023-04-27T17:44:18.984Z,97545.81
2023-04-27T17:46:51.293Z,97543.28
2023-04-27T17:49:19.173Z,97531.72
2023-04-27T17:51:47.031Z,97545.09
2023-04-27T17:54:13.642Z,97540.38
2023-04-27T17:56:40.413Z,97546.75
2023-04-27T17:59:07.909Z,97553.78
2023-04-27T18:01:34.600Z,97548.84
2023-04-27T18:04:04.012Z,97549.19
2023-04-27T18:06:32.196Z,97550.16
2023-04-27T18:08:58.999Z,97555.91
2023-04-27T18:11:25.611Z,97545.56
2023-04-27T18:13:55.831Z,97550.16
2023-04-27T18:16:22.564Z,97553.56
2023-04-27T18:18:49.304Z,97547.03
2023-04-27T18:21:16.100Z,97555.59
2023-04-27T18:23:43.223Z,97555.13
2023-04-27T18:26:11.623Z,97560.19
2023-04-27T18:28:40.287Z,97557.78
2023-04-27T18:31:17.222Z,97563.69
2023-04-27T18:33:44.921Z,97559.09
2023-04-27T18:36:11.668Z,97554.09
2023-04-27T18:38:38.388Z,97556.34
2023-04-27T18:41:05.140Z,97552.22
2023-04-27T18:43:34.304Z,97562.38
2023-04-27T18:46:00.968Z,97556.34
2023-04-27T18:48:27.597Z,97558.84
2023-04-27T18:50:54.222Z,97568.03
2023-04-27T18:53:21.004Z,97562.78
2023-04-27T18:55:47.615Z,97570.41
2023-04-27T18:58:14.235Z,97563.28
2023-04-27T19:00:41.062Z,97570.03
2023-04-27T19:03:08.232Z,97571.31
2023-04-27T19:05:35.118Z,97576.47
2023-04-27T19:08:02.278Z,97575.78
2023-04-27T19:10:29.236Z,97575.59
2023-04-27T19:12:57.202Z,97586.69
2023-04-27T19:15:24.268Z,97582.91
2023-04-27T19:18:02.768Z,97572.44
2023-04-27T19:20:36.543Z,97579.66
2023-04-27T19:23:03.413Z,97579.75
2023-04-27T19:25:30.084Z,97578.47
2023-04-27T19:27:56.804Z,97573.81
2023-04-27T19:30:23.709Z,97572.56
2023-04-27T19:32:50.475Z,97578.16
2023-04-27T19:35:17.082Z,97582.59
2023-04-27T19:37:43.691Z,97584.94
2023-04-27T19:40:10.983Z,97583.88
2023-04-27T19:42:37.675Z,97580.81
2023-04-27T19:45:04.490Z,97585.63
2023-04-27T19:47:31.353Z,97580.25
2023-04-27T19:49:59.208Z,97581.19
2023-04-27T19:52:26.153Z,97585.13
2023-04-27T19:54:53.861Z,97579.13
2023-04-27T19:57:21.374Z,97580.69
2023-04-27T19:59:48.648Z,97586.31
2023-04-27T20:02:15.444Z,97585.25
2023-04-27T20:04:42.386Z,97581.38
2023-04-27T20:07:09.246Z,97585.69
2023-04-27T20:09:36.124Z,97588.81
2023-04-27T20:12:04.241Z,97590.44
2023-04-27T20:14:33.833Z,97581.13
2023-04-27T20:17:00.718Z,97574.13
2023-04-27T20:19:27.319Z,97584.41
2023-04-27T20:21:53.965Z,97583.66
2023-04-27T20:24:20.653Z,97579.13
2023-04-27T20:26:47.298Z,97573.69
2023-04-27T20:29:14.161Z,97569.09
2023-04-27T20:31:41.300Z,97578.44
2023-04-27T20:34:07.964Z,97575.34
2023-04-27T20:36:34.648Z,97575.09
2023-04-27T20:39:01.259Z,97576.34
2023-04-27T20:41:28.335Z,97577.63
2023-04-27T20:43:56.623Z,97579.47
2023-04-27T20:46:23.272Z,97582.72
2023-04-27T20:48:49.950Z,97581.16
2023-04-27T20:51:16.525Z,97573.03
2023-04-27T20:53:46.397Z,97576.59
2023-04-27T20:56:12.936Z,97571.22
2023-04-27T20:58:39.554Z,97566.94
2023-04-27T21:01:06.362Z,97577.50
2023-04-27T21:03:33.179Z,97575.59
2023-04-27T21:06:02.766Z,97572.56
2023-04-27T21:08:29.341Z,97571.44
2023-04-27T21:10:57.318Z,97564.50
2023-04-27T21:13:24.629Z,97565.31
2023-04-27T21:15:51.255Z,97560.25
2023-04-27T21:18:29.754Z,97560.63
2023-04-27T21:20:57.281Z,97554.81
2023-04-27T21:23:24.785Z,97555.19
2023-04-27T21:25:51.386Z,97548.16
2023-04-27T21:28:17.962Z,97552.09
2023-04-27T21:30:44.628Z,97563.38
2023-04-27T21:33:11.312Z,97557.91
2023-04-27T21:35:38.038Z,97558.38
2023-04-27T21:38:04.654Z,97566.50
2023-04-27T21:40:31.283Z,97563.53
2023-04-27T21:42:57.895Z,97559.25
2023-04-27T21:45:24.630Z,97561.91
2023-04-27T21:47:51.523Z,97551.41
2023-04-27T21:50:18.310Z,97549.91
2023-04-27T21:52:44.949Z,97547.59
2023-04-27T21:55:11.708Z,97550.28
2023-04-27T21:57:38.347Z,97546.81
2023-04-27T22:00:13.500Z,97548.47
2023-04-27T22:02:42.744Z,97543.38
2023-04-27T22:05:12.489Z,97547.69
2023-04-27T22:07:39.123Z,97543.78
2023-04-27T22:10:07.113Z,97539.88
2023-04-27T22:12:33.784Z,97551.56
2023-04-27T22:15:00.730Z,97539.88
2023-04-27T22:17:27.954Z,97554.69
2023-04-27T22:19:55.016Z,97552.44
2023-04-27T22:22:21.765Z,97544.59
2023-04-27T22:24:48.713Z,97538.31
2023-04-27T22:27:16.018Z,97537.59
2023-04-27T22:29:42.716Z,97536.88
2023-04-27T22:32:10.218Z,97535.69
2023-04-27T22:34:37.589Z,97533.78
2023-04-27T22:37:04.645Z,97532.25
2023-04-27T22:39:32.170Z,97532.25
2023-04-27T22:41:58.899Z,97527.94
2023-04-27T22:44:26.112Z,97532.25
2023-04-27T22:46:52.915Z,97535.38
2023-04-27T22:49:19.496Z,97536.94
2023-04-27T22:51:47.365Z,97540.88
2023-04-27T22:54:14.560Z,97546.34
2023-04-27T22:56:41.549Z,97540.16
2023-04-27T22:59:08.642Z,97535.84
2023-04-27T23:01:35.263Z,97534.69
2023-04-27T23:04:02.237Z,97540.16
2023-04-27T23:06:28.906Z,97539.34
2023-04-27T23:08:56.803Z,97547.53
2023-04-27T23:11:24.138Z,97541.66
2023-04-27T23:13:50.834Z,97539.28
2023-04-27T23:16:17.733Z,97535.44
2023-04-27T23:18:44.502Z,97541.22
2023-04-27T23:21:11.741Z,97534.56
2023-04-27T23:23:38.496Z,97532.25
2023-04-27T23:26:12.633Z,97530.66
2023-04-27T23:28:39.210Z,97533.41
2023-04-27T23:31:05.824Z,97524.84
2023-04-27T23:33:32.414Z,97515.06
2023-04-27T23:35:59.161Z,97515.06
2023-04-27T23:38:26.440Z,97520.50
2023-04-27T23:40:53.753Z,97516.22
2023-04-27T23:43:20.438Z,97523.22
2023-04-27T23:45:51.486Z,97528.34
2023-04-27T23:48:18.991Z,97525.19
2023-04-27T23:50:46.025Z,97510.75
2023-04-27T23:53:12.708Z,97505.72
2023-04-27T23:55:39.327Z,97519.00
2023-04-27T23:58:06.104Z,97522.47
